Terminal Aerodrome Forecast
Issued by NWS

Home | Current Version | Previous Version | Text Only | Print | Product List | Glossary On
Versions: 1 2 3 4 5 6 7 8 9 10 11 12 13 14 15 16 17
000
FTUS41 KGYX 172328
TAFPSM
TAF
KPSM 172328Z 1800/1824 30007KT P6SM SCT100
     FM180800 34005KT 2SM BR SCT100
     FM181200 07009KT P6SM OVC050
     FM181800 13015G21KT P6SM BKN100=

USA.gov is the U.S. government's official web portal to all federal, state and local government web resources and services.